Time;durP1;ratioP1;P1;durP2;ratioP2;P2;SDS_P1;SDS_P2;PMS_P1;PMS_P2;Temp;Humidity;BMP_temperature;BMP_pressure;BME280_temperature;BME280_humidity;BME280_pressure;Samples;Min_cycle;Max_cycle;Signal;HPM_P1;HPM_P2
2022/01/22 00:02:00;;;;;;;5.03;3.42;;;;;;;-1.56;65.97;100210.30;1861487;77;21151;-78
2022/01/22 00:04:27;;;;;;;5.22;3.47;;;;;;;-1.56;65.87;100208.57;1861466;77;20921;-79
2022/01/22 00:06:55;;;;;;;7.62;3.67;;;;;;;-1.55;65.96;100209.00;1861599;77;20849;-78
2022/01/22 00:09:25;;;;;;;9.60;3.95;;;;;;;-1.53;65.91;100206.41;1861587;77;20913;-80
2022/01/22 00:11:53;;;;;;;6.90;3.45;;;;;;;-1.53;65.97;100212.40;1861642;77;20917;-79
2022/01/22 00:14:24;;;;;;;7.15;3.35;;;;;;;-1.52;65.93;100202.51;1861502;77;21216;-80
2022/01/22 00:16:58;;;;;;;10.48;4.80;;;;;;;-1.51;65.90;100201.66;1861340;77;21414;-80
2022/01/22 00:19:27;;;;;;;5.15;3.67;;;;;;;-1.49;65.88;100197.75;1861390;77;20916;-77
2022/01/22 00:21:54;;;;;;;7.87;4.00;;;;;;;-1.50;65.95;100198.63;1861571;77;20932;-78
2022/01/22 00:24:21;;;;;;;5.47;3.33;;;;;;;-1.50;65.90;100194.78;1861441;77;20944;-78
2022/01/22 00:26:48;;;;;;;10.20;4.03;;;;;;;-1.50;65.87;100189.19;1861486;77;21315;-78
2022/01/22 00:29:16;;;;;;;4.90;3.10;;;;;;;-1.49;65.84;100175.48;1861429;77;20873;-78
2022/01/22 00:31:43;;;;;;;7.05;3.20;;;;;;;-1.48;65.96;100168.60;1861382;77;20901;-78
2022/01/22 00:34:10;;;;;;;9.93;3.83;;;;;;;-1.49;65.91;100166.89;1861466;77;20956;-80
2022/01/22 00:36:37;;;;;;;6.60;3.65;;;;;;;-1.49;66.03;100163.03;1861418;77;20896;-80
2022/01/22 00:39:04;;;;;;;9.28;3.72;;;;;;;-1.50;65.95;100166.05;1861505;77;21519;-76
2022/01/22 00:41:32;;;;;;;8.63;3.55;;;;;;;-1.52;66.00;100162.66;1861398;77;20940;-77
2022/01/22 00:43:59;;;;;;;8.55;4.05;;;;;;;-1.54;65.94;100166.13;1861479;77;20917;-76
2022/01/22 00:46:26;;;;;;;7.42;4.45;;;;;;;-1.58;66.08;100164.08;1861475;77;20983;-77
2022/01/22 00:48:53;;;;;;;6.03;3.60;;;;;;;-1.59;66.17;100158.50;1861516;77;20888;-77
2022/01/22 00:51:20;;;;;;;7.53;3.45;;;;;;;-1.60;66.16;100168.39;1861510;77;21119;-77
2022/01/22 00:53:48;;;;;;;6.90;3.92;;;;;;;-1.61;66.19;100165.39;1861620;77;21081;-77
2022/01/22 00:56:14;;;;;;;10.00;4.95;;;;;;;-1.63;66.15;100163.28;1861673;77;20893;-77
2022/01/22 00:58:41;;;;;;;7.87;3.87;;;;;;;-1.63;66.13;100157.30;1861269;77;20996;-76
2022/01/22 01:01:08;;;;;;;9.53;4.47;;;;;;;-1.66;66.06;100162.06;1861482;77;20995;-78
2022/01/22 01:03:35;;;;;;;7.90;4.42;;;;;;;-1.69;66.10;100165.95;1861295;77;21117;-78
2022/01/22 01:06:03;;;;;;;13.13;4.58;;;;;;;-1.72;66.18;100168.59;1862296;77;20940;-77
2022/01/22 01:08:33;;;;;;;8.18;4.08;;;;;;;-1.77;66.14;100162.24;1863388;77;21434;-76
2022/01/22 01:11:00;;;;;;;9.93;4.05;;;;;;;-1.80;66.15;100167.86;1861593;77;20968;-77
2022/01/22 01:13:31;;;;;;;20.55;5.30;;;;;;;-1.85;66.17;100165.37;1861443;77;20968;-77
2022/01/22 01:16:02;;;;;;;7.60;4.50;;;;;;;-1.89;66.19;100168.85;1861489;77;21150;-78
2022/01/22 01:32:18;;;;;;;8.63;5.03;;;;;;;-2.26;66.78;100172.45;1861842;77;20896;-80
2022/01/22 01:34:47;;;;;;;6.60;4.33;;;;;;;-2.36;66.90;100176.41;1861898;77;20861;-79
2022/01/22 01:37:16;;;;;;;10.98;5.83;;;;;;;-2.43;67.04;100179.94;1861421;77;20999;-79
2022/01/22 01:39:45;;;;;;;9.83;4.40;;;;;;;-2.47;67.17;100191.56;1861337;77;20909;-79
2022/01/22 01:42:17;;;;;;;5.30;3.75;;;;;;;-2.54;67.28;100183.94;1861833;77;21116;-78
2022/01/22 01:44:43;;;;;;;7.60;3.85;;;;;;;-2.60;67.34;100188.30;1861391;77;20857;-77
2022/01/22 01:47:15;;;;;;;10.40;4.80;;;;;;;-2.64;67.45;100186.67;1860184;77;20912;-79
2022/01/22 01:49:40;;;;;;;7.85;4.40;;;;;;;-2.68;67.60;100185.84;1861681;77;20920;-78
2022/01/22 01:52:15;;;;;;;9.40;3.85;;;;;;;-2.73;67.60;100182.50;1860435;77;20893;-77
2022/01/22 01:55:02;;;;;;;7.28;4.45;;;;;;;-2.76;67.70;100187.66;1860925;77;21252;-78
2022/01/22 01:57:32;;;;;;;9.15;4.40;;;;;;;-2.79;67.79;100184.70;1858624;77;20925;-78
2022/01/22 01:59:56;;;;;;;5.20;3.75;;;;;;;-2.83;67.83;100186.04;1857188;77;20878;-77
2022/01/22 02:02:30;;;;;;;7.62;4.75;;;;;;;-2.88;67.86;100190.39;1854690;77;20957;-78
2022/01/22 02:04:56;;;;;;;9.53;5.78;;;;;;;-2.93;67.93;100188.72;1858123;76;20917;-78
2022/01/22 02:07:23;;;;;;;5.83;4.72;;;;;;;-2.97;67.92;100190.06;1858255;77;21095;-79
2022/01/22 02:09:52;;;;;;;7.58;4.45;;;;;;;-3.00;67.94;100194.80;1856271;77;21501;-79
2022/01/22 02:23:40;;;;;;;10.50;5.58;;;;;;;-3.26;67.95;100215.58;1860128;75;20893;-78
2022/01/22 02:26:05;;;;;;;9.38;4.17;;;;;;;-3.34;68.03;100219.48;1857624;76;20849;-79
2022/01/22 02:28:34;;;;;;;6.25;3.62;;;;;;;-3.39;68.07;100226.38;1857518;77;20920;-80
2022/01/22 02:31:12;;;;;;;9.13;4.75;;;;;;;-3.45;68.08;100217.45;1858299;77;20971;-79
2022/01/22 02:34:44;;;;;;;10.23;4.55;;;;;;;-3.49;68.10;100217.50;1856894;77;21495;-76
2022/01/22 02:36:23;;;;;;;8.43;4.17;;;;;;;-3.56;68.21;100206.05;1823432;76;21426;-78
2022/01/22 02:38:59;;;;;;;10.95;5.15;;;;;;;-3.61;68.29;100218.03;1858485;76;20908;-79
2022/01/22 02:41:23;;;;;;;10.43;4.90;;;;;;;-3.64;68.41;100213.38;1858682;77;20928;-77
2022/01/22 02:43:49;;;;;;;8.60;4.53;;;;;;;-3.65;68.55;100221.91;1860313;77;20933;-76
2022/01/22 02:46:19;;;;;;;10.85;4.85;;;;;;;-3.67;68.64;100218.52;1859622;77;22114;-75
2022/01/22 02:48:46;;;;;;;7.45;4.78;;;;;;;-3.69;68.75;100212.55;1858479;76;20830;-80
2022/01/22 02:51:13;;;;;;;8.78;5.05;;;;;;;-3.70;68.84;100221.95;1858222;77;20846;-79
2022/01/22 02:53:40;;;;;;;7.58;5.25;;;;;;;-3.72;68.79;100213.87;1858352;76;20869;-78
2022/01/22 02:56:07;;;;;;;7.20;4.80;;;;;;;-3.81;68.74;100213.51;1858665;77;20956;-77
2022/01/22 02:58:34;;;;;;;8.73;5.15;;;;;;;-3.78;68.87;100216.91;1838528;77;21104;-80
2022/01/22 03:01:01;;;;;;;7.97;4.62;;;;;;;-3.79;68.82;100204.10;1818765;77;20903;-79
2022/01/22 03:03:28;;;;;;;8.48;4.50;;;;;;;-3.78;68.72;100208.34;1818681;77;20997;-77
2022/01/22 03:05:55;;;;;;;8.70;4.80;;;;;;;-3.81;68.60;100200.70;1818530;77;20946;-79
2022/01/22 03:08:27;;;;;;;14.33;4.87;;;;;;;-3.85;68.50;100200.30;1819034;77;20958;-78
2022/01/22 03:13:05;;;;;;;11.40;5.50;;;;;;;-3.93;68.55;100193.13;1798495;79;22559;-78
2022/01/22 03:15:36;;;;;;;9.73;5.22;;;;;;;-4.04;68.62;100198.33;1755487;81;20916;-78
2022/01/22 03:18:05;;;;;;;5.75;4.25;;;;;;;-4.04;68.72;100199.61;1757609;81;21838;-79
2022/01/22 03:27:20;;;;;;;9.95;4.60;;;;;;;-4.01;68.89;100208.09;1687999;85;21416;-79
2022/01/22 03:28:29;;;;;;;7.63;4.50;;;;;;;-4.03;68.79;100211.09;1687956;83;20085;-78
2022/01/22 03:30:55;;;;;;;12.15;4.87;;;;;;;-4.07;68.74;100217.13;1687758;85;21627;-78
2022/01/22 03:33:24;;;;;;;9.58;5.05;;;;;;;-4.13;68.79;100223.56;1687571;85;20888;-78
2022/01/22 03:35:55;;;;;;;9.38;4.75;;;;;;;-4.18;68.89;100226.55;1689753;83;20928;-79
2022/01/22 03:38:19;;;;;;;6.28;4.17;;;;;;;-4.23;69.01;100223.19;1687650;83;20928;-78
2022/01/22 03:40:49;;;;;;;9.15;4.87;;;;;;;-4.28;69.18;100223.65;1687791;85;21428;-78
2022/01/22 03:43:15;;;;;;;7.17;5.12;;;;;;;-4.33;69.30;100222.84;1687508;85;21690;-77
2022/01/22 03:45:42;;;;;;;7.58;4.25;;;;;;;-4.38;69.48;100230.52;1687764;83;20947;-77
2022/01/22 03:48:09;;;;;;;5.45;4.00;;;;;;;-4.42;69.62;100223.30;1687556;85;21504;-79
2022/01/22 03:50:36;;;;;;;9.48;4.75;;;;;;;-4.44;69.81;100233.97;1687755;85;20888;-78
2022/01/22 03:53:03;;;;;;;6.97;4.45;;;;;;;-4.45;69.99;100235.25;1687553;85;20955;-79
2022/01/22 03:56:01;;;;;;;7.85;4.90;;;;;;;-4.45;70.07;100234.81;1687659;85;21138;-78
2022/01/22 03:58:32;;;;;;;8.15;5.25;;;;;;;-4.43;70.22;100239.93;1687463;83;20967;-78
2022/01/22 04:03:57;;;;;;;7.42;4.55;;;;;;;-4.40;70.33;100245.89;1758376;80;21319;-78
2022/01/22 04:09:06;;;;;;;8.63;4.55;;;;;;;-4.31;70.40;100259.08;1758595;80;21078;-79
2022/01/22 04:11:32;;;;;;;6.67;4.10;;;;;;;-4.24;70.52;100263.30;1752803;80;20980;-79
2022/01/22 04:14:03;;;;;;;10.58;4.65;;;;;;;-4.20;70.57;100268.83;1745322;80;20941;-77
2022/01/22 04:16:29;;;;;;;8.78;4.53;;;;;;;-4.17;70.63;100275.20;1745025;80;21003;-76
2022/01/22 04:27:21;;;;;;;8.85;4.80;;;;;;;-4.04;70.81;100266.19;1708791;84;20935;-79
2022/01/22 04:29:44;;;;;;;9.48;5.08;;;;;;;-4.01;70.79;100275.12;1708496;83;20897;-78
2022/01/22 04:32:11;;;;;;;9.78;6.45;;;;;;;-4.01;70.78;100269.99;1708820;82;20964;-78
2022/01/22 04:34:38;;;;;;;9.73;5.87;;;;;;;-4.00;70.78;100263.59;1708823;84;21134;-77
2022/01/22 04:37:05;;;;;;;10.53;5.53;;;;;;;-4.01;70.79;100259.75;1708733;84;20932;-77
2022/01/22 04:39:33;;;;;;;8.38;5.92;;;;;;;-4.05;70.84;100264.03;1708750;84;21341;-77
2022/01/22 04:42:00;;;;;;;6.85;5.05;;;;;;;-4.08;70.89;100274.30;1708814;84;20967;-77
2022/01/22 04:44:34;;;;;;;7.58;4.95;;;;;;;-4.10;70.90;100272.61;1708931;84;21006;-77
2022/01/22 04:47:31;;;;;;;8.98;4.60;;;;;;;-4.12;70.88;100272.61;1708595;82;21567;-77
2022/01/22 04:54:59;;;;;;;9.30;4.42;;;;;;;-4.20;71.08;100273.95;1709107;84;20904;-80
2022/01/22 04:57:35;;;;;;;7.40;5.08;;;;;;;-4.22;71.22;100284.63;1708816;84;20915;-79
2022/01/22 05:00:09;;;;;;;10.35;5.72;;;;;;;-4.23;71.24;100283.34;1708894;83;21113;-79
2022/01/22 05:02:39;;;;;;;11.53;5.08;;;;;;;-4.26;71.28;100285.49;1743705;82;20885;-76
2022/01/22 05:05:09;;;;;;;7.53;5.45;;;;;;;-4.30;71.47;100282.52;1727006;81;20960;-79
2022/01/22 05:07:38;;;;;;;10.18;6.22;;;;;;;-4.32;71.47;100290.63;1743056;81;20877;-80
2022/01/22 05:10:25;;;;;;;11.28;6.50;;;;;;;-4.34;71.53;100282.11;1744672;81;21378;-81
2022/01/22 05:12:53;;;;;;;8.48;5.53;;;;;;;-4.38;71.47;100286.81;1754779;81;21154;-80
2022/01/22 05:15:21;;;;;;;12.70;6.45;;;;;;;-4.38;71.48;100290.66;1757766;81;20845;-80
2022/01/22 05:17:48;;;;;;;12.00;8.20;;;;;;;-4.35;71.42;100294.50;1757963;81;20991;-77
2022/01/22 05:20:25;;;;;;;13.30;7.33;;;;;;;-4.35;71.39;100286.82;1721849;83;20959;-78
2022/01/22 05:22:58;;;;;;;21.02;7.78;;;;;;;-4.33;71.30;100286.83;1721482;83;21464;-79
2022/01/22 05:25:33;;;;;;;11.63;5.37;;;;;;;-4.34;71.12;100291.50;1721319;83;21612;-77
2022/01/22 05:38:52;;;;;;;14.95;8.05;;;;;;;-4.50;70.93;100303.08;1699699;83;21163;-79
2022/01/22 05:41:19;;;;;;;16.12;7.67;;;;;;;-4.54;70.91;100301.81;1722050;83;20974;-79
2022/01/22 05:43:46;;;;;;;11.18;6.65;;;;;;;-4.59;70.94;100302.68;1721716;83;20915;-79
2022/01/22 05:46:14;;;;;;;10.38;5.85;;;;;;;-4.60;71.00;100301.43;1721762;83;20955;-79
2022/01/22 05:48:41;;;;;;;10.43;5.60;;;;;;;-4.64;71.03;100299.30;1722040;82;21539;-79
2022/01/22 05:51:09;;;;;;;8.68;5.22;;;;;;;-4.67;71.12;100300.59;1721953;83;21183;-80
2022/01/22 05:53:51;;;;;;;11.88;7.05;;;;;;;-4.68;71.21;100298.88;1721771;83;20860;-79
2022/01/22 06:01:25;;;;;;;17.75;7.35;;;;;;;-4.70;71.37;100301.87;1722373;82;20895;-78
2022/01/22 06:03:57;;;;;;;11.73;7.05;;;;;;;-4.70;71.35;100313.38;1722074;82;21781;-76
2022/01/22 06:06:23;;;;;;;14.40;7.62;;;;;;;-4.66;71.44;100319.34;1722112;83;20887;-77
2022/01/22 06:08:54;;;;;;;13.68;6.83;;;;;;;-4.62;71.35;100327.44;1721850;83;20947;-79
2022/01/22 06:11:24;;;;;;;14.33;8.83;;;;;;;-4.61;71.30;100322.30;1721995;83;21413;-80
2022/01/22 06:13:52;;;;;;;13.32;6.95;;;;;;;-4.57;71.35;100314.20;1716349;83;20962;-79
2022/01/22 06:16:23;;;;;;;18.02;8.43;;;;;;;-4.53;71.21;100312.06;1751848;81;21214;-78
2022/01/22 06:18:54;;;;;;;14.00;9.30;;;;;;;-4.51;71.23;100306.51;1714448;83;21368;-79
2022/01/22 06:21:21;;;;;;;15.68;7.55;;;;;;;-4.51;71.13;100308.19;1716582;83;21391;-79
2022/01/22 06:23:48;;;;;;;16.27;7.65;;;;;;;-4.48;71.11;100310.33;1717058;83;21428;-76
2022/01/22 06:26:15;;;;;;;11.73;7.33;;;;;;;-4.47;71.07;100321.41;1717011;83;20916;-77
2022/01/22 06:28:42;;;;;;;12.90;7.58;;;;;;;-4.45;71.05;100317.98;1716294;83;21105;-78
2022/01/22 06:31:10;;;;;;;14.35;7.67;;;;;;;-4.43;71.06;100320.54;1716384;82;20979;-78
2022/01/22 06:33:38;;;;;;;21.30;8.73;;;;;;;-4.41;71.00;100325.23;1716502;83;21445;-79
2022/01/22 06:36:05;;;;;;;15.25;8.23;;;;;;;-4.40;71.01;100332.91;1716340;83;20947;-78
2022/01/22 06:38:33;;;;;;;13.72;7.28;;;;;;;-4.40;70.98;100332.06;1716939;83;21432;-78
2022/01/22 06:44:09;;;;;;;17.15;7.58;;;;;;;-4.34;70.90;100327.34;1716714;83;21000;-79
2022/01/22 06:46:42;;;;;;;22.15;8.28;;;;;;;-4.31;70.88;100323.47;1753633;81;20961;-79
2022/01/22 06:49:27;;;;;;;13.28;6.58;;;;;;;-4.27;70.91;100329.00;1754753;80;20896;-78
2022/01/22 06:52:04;;;;;;;16.05;7.83;;;;;;;-4.23;70.88;100327.70;1717149;82;20911;-76
2022/01/22 06:54:31;;;;;;;15.15;8.35;;;;;;;-4.16;70.82;100331.09;1717306;83;21133;-77
2022/01/22 06:57:01;;;;;;;9.73;7.40;;;;;;;-4.10;70.74;100328.51;1716549;83;20840;-78
2022/01/22 06:59:29;;;;;;;15.83;7.47;;;;;;;-4.05;70.64;100331.89;1752552;81;20960;-79
2022/01/22 07:01:56;;;;;;;17.87;8.30;;;;;;;-3.99;70.51;100329.73;1752897;80;21399;-78
2022/01/22 07:04:25;;;;;;;10.85;7.12;;;;;;;-3.91;70.41;100332.24;1716352;83;20916;-78
2022/01/22 07:07:04;;;;;;;13.45;7.70;;;;;;;-3.81;70.30;100338.59;1702840;83;21994;-78
2022/01/22 07:09:32;;;;;;;15.80;7.55;;;;;;;-3.67;70.05;100347.91;1716382;82;20948;-79
2022/01/22 07:12:00;;;;;;;11.63;7.60;;;;;;;-3.55;69.70;100359.37;1716237;83;21769;-79
2022/01/22 07:14:27;;;;;;;11.28;6.85;;;;;;;-3.46;69.41;100350.78;1716321;83;20896;-78
2022/01/22 07:16:55;;;;;;;13.00;7.50;;;;;;;-3.42;69.07;100354.59;1716383;83;21370;-78
2022/01/22 07:19:23;;;;;;;11.18;6.72;;;;;;;-3.37;68.92;100348.14;1716252;83;22009;-81
2022/01/22 07:22:04;;;;;;;12.85;7.47;;;;;;;-3.32;68.65;100342.98;1752470;80;20921;-76
2022/01/22 07:24:26;;;;;;;9.60;6.40;;;;;;;-3.28;68.54;100345.94;1751049;81;21043;-77
2022/01/22 07:26:55;;;;;;;12.47;6.90;;;;;;;-3.28;68.24;100340.38;1752941;81;20916;-79
2022/01/22 07:29:24;;;;;;;14.78;8.50;;;;;;;-3.25;68.29;100344.63;1715691;82;20911;-78
2022/01/22 07:31:52;;;;;;;19.20;9.83;;;;;;;-3.23;68.13;100348.03;1716664;83;21293;-78
2022/01/22 07:34:19;;;;;;;16.90;8.38;;;;;;;-3.19;68.08;100354.40;1716309;83;21030;-77
2022/01/22 07:36:46;;;;;;;14.87;6.97;;;;;;;-3.10;68.05;100361.17;1716450;83;20927;-77
2022/01/22 07:39:13;;;;;;;19.55;9.38;;;;;;;-2.97;67.64;100368.34;1716196;83;21365;-77
2022/01/22 07:41:42;;;;;;;14.33;8.25;;;;;;;-2.80;67.50;100365.60;1750252;82;20893;-77
2022/01/22 07:44:13;;;;;;;12.18;7.33;;;;;;;-2.61;67.29;100372.70;1749958;81;21534;-80
2022/01/22 07:46:48;;;;;;;15.00;7.87;;;;;;;-2.43;66.73;100369.09;1752275;80;20980;-76
2022/01/22 07:49:19;;;;;;;12.93;7.45;;;;;;;-2.30;66.22;100368.94;1752100;81;21422;-80
2022/01/22 07:51:47;;;;;;;11.33;7.05;;;;;;;-2.16;65.93;100370.05;1751809;80;20861;-79
2022/01/22 07:54:16;;;;;;;16.05;8.45;;;;;;;-2.05;65.30;100373.78;1752462;82;21473;-79
2022/01/22 07:56:43;;;;;;;12.15;7.53;;;;;;;-1.97;65.02;100371.97;1752428;82;21797;-81
2022/01/22 07:59:11;;;;;;;14.03;7.97;;;;;;;-1.90;64.78;100376.59;1752510;82;20987;-79
2022/01/22 08:01:40;;;;;;;11.22;6.08;;;;;;;-1.83;64.38;100377.38;1716048;83;20943;-79
2022/01/22 08:04:24;;;;;;;15.35;7.25;;;;;;;-1.78;64.29;100372.59;1716471;83;21478;-78
2022/01/22 08:07:10;;;;;;;10.40;7.47;;;;;;;-1.62;64.32;100372.36;1716481;83;21038;-79
2022/01/22 08:09:57;;;;;;;10.38;6.45;;;;;;;-1.52;63.75;100367.07;1716457;83;21172;-79
2022/01/22 08:12:32;;;;;;;11.30;6.62;;;;;;;-1.42;63.38;100368.22;1714068;83;20988;-79
2022/01/22 08:15:00;;;;;;;9.53;5.78;;;;;;;-1.36;63.39;100371.55;1744740;81;21453;-81
2022/01/22 08:17:28;;;;;;;15.23;7.30;;;;;;;-1.30;63.11;100370.62;1744638;81;20893;-80
2022/01/22 08:19:55;;;;;;;9.80;7.08;;;;;;;-1.30;62.96;100371.91;1744626;82;20920;-78
2022/01/22 08:22:34;;;;;;;10.08;6.47;;;;;;;-1.28;63.04;100373.58;1711816;81;21564;-79
2022/01/22 08:25:03;;;;;;;12.53;6.47;;;;;;;-1.33;62.64;100374.53;1713604;80;20988;-81
2022/01/22 08:27:36;;;;;;;13.35;7.47;;;;;;;-1.43;62.65;100372.96;1744435;81;20972;-80
2022/01/22 08:29:59;;;;;;;14.75;8.90;;;;;;;-1.50;62.79;100378.19;1744454;81;20964;-79
2022/01/22 08:37:43;;;;;;;13.72;7.20;;;;;;;-1.72;63.06;100369.08;1708754;84;21019;-81
2022/01/22 08:40:11;;;;;;;9.05;5.75;;;;;;;-1.78;63.44;100371.72;1709545;82;20939;-79
2022/01/22 08:42:38;;;;;;;11.73;6.40;;;;;;;-1.81;63.56;100363.63;1708954;84;21374;-78
2022/01/22 08:45:06;;;;;;;9.73;5.70;;;;;;;-1.85;63.64;100364.53;1708910;82;20892;-78
2022/01/22 08:47:34;;;;;;;12.07;6.60;;;;;;;-1.85;63.72;100370.95;1708882;84;21160;-78
2022/01/22 08:50:01;;;;;;;13.60;7.28;;;;;;;-1.84;63.98;100377.81;1708729;82;20892;-78
2022/01/22 08:52:34;;;;;;;12.70;8.18;;;;;;;-1.77;64.00;100382.44;1708947;84;20991;-77
2022/01/22 08:54:59;;;;;;;14.03;7.05;;;;;;;-1.66;64.06;100392.14;1708723;83;21608;-77
2022/01/22 08:57:26;;;;;;;13.95;7.92;;;;;;;-1.53;63.80;100388.53;1709020;84;21366;-80
2022/01/22 08:59:55;;;;;;;17.05;7.83;;;;;;;-1.38;63.62;100377.18;1744119;81;21592;-79
2022/01/22 09:02:22;;;;;;;15.13;7.90;;;;;;;-1.19;63.28;100384.61;1744843;81;20968;-82
2022/01/22 09:04:53;;;;;;;14.38;8.30;;;;;;;-0.99;63.14;100388.99;1743793;81;20964;-80
2022/01/22 09:07:38;;;;;;;12.50;7.30;;;;;;;-0.77;62.88;100392.50;1744674;82;20853;-79
2022/01/22 09:10:14;;;;;;;16.67;9.00;;;;;;;-0.53;62.32;100402.82;1708131;83;20892;-80
2022/01/22 09:12:44;;;;;;;13.53;8.90;;;;;;;-0.33;61.80;100403.74;1709851;82;20927;-81
2022/01/22 09:15:13;;;;;;;14.35;8.05;;;;;;;-0.15;61.49;100399.52;1712276;83;20983;-79
2022/01/22 09:17:43;;;;;;;13.98;7.20;;;;;;;0.05;61.29;100408.14;1716690;83;20944;-82
2022/01/22 09:20:14;;;;;;;12.45;7.20;;;;;;;0.20;60.03;100401.80;1716585;82;21026;-82
2022/01/22 09:22:40;;;;;;;15.70;9.30;;;;;;;0.20;59.61;100404.38;1716816;83;21468;-82
2022/01/22 09:25:14;;;;;;;16.40;7.53;;;;;;;0.18;59.40;100402.30;1716477;82;21129;-79
2022/01/22 09:27:38;;;;;;;14.90;6.92;;;;;;;0.18;59.41;100407.02;1716100;83;20939;-80
2022/01/22 09:30:06;;;;;;;10.58;8.05;;;;;;;0.20;59.59;100406.95;1716521;83;20979;-80
2022/01/22 09:32:35;;;;;;;12.50;7.05;;;;;;;0.26;59.63;100408.58;1716509;82;20900;-82
2022/01/22 09:35:10;;;;;;;14.10;6.80;;;;;;;0.33;59.22;100408.84;1710125;82;20979;-83
2022/01/22 09:37:40;;;;;;;14.13;8.35;;;;;;;0.38;59.18;100410.91;1752944;80;22005;-80
2022/01/22 09:40:28;;;;;;;11.25;5.80;;;;;;;0.47;59.17;100408.54;1753119;80;20916;-83
2022/01/22 09:42:59;;;;;;;11.60;8.33;;;;;;;0.57;58.54;100413.92;1699550;83;20967;-82
2022/01/22 09:45:31;;;;;;;11.28;8.20;;;;;;;0.60;58.43;100409.55;1715794;82;20881;-81
2022/01/22 09:48:02;;;;;;;14.05;7.70;;;;;;;0.68;58.41;100410.66;1715664;83;20916;-83
2022/01/22 09:50:37;;;;;;;11.03;7.12;;;;;;;0.77;58.24;100407.02;1752617;81;21147;-82
2022/01/22 09:53:15;;;;;;;12.07;6.53;;;;;;;0.77;57.62;100400.56;1703133;83;20888;-82
2022/01/22 09:55:46;;;;;;;20.27;8.68;;;;;;;0.66;57.50;100396.94;1706408;83;21410;-80
2022/01/22 09:58:31;;;;;;;12.98;8.28;;;;;;;0.57;57.72;100401.86;1710709;83;21003;-81
2022/01/22 10:01:33;;;;;;;11.33;6.37;;;;;;;0.56;57.94;100401.47;1716533;83;20844;-82
2022/01/22 10:04:04;;;;;;;8.75;6.28;;;;;;;0.64;57.95;100405.60;1715919;82;21207;-80
2022/01/22 10:06:53;;;;;;;10.20;6.97;;;;;;;0.79;58.16;100396.22;1716394;82;20955;-82
2022/01/22 10:09:27;;;;;;;8.40;6.50;;;;;;;1.00;57.55;100393.55;1752241;80;20932;-80
2022/01/22 10:12:14;;;;;;;11.10;6.72;;;;;;;1.10;57.05;100400.20;1752517;82;21003;-79
2022/01/22 10:15:13;;;;;;;12.00;6.67;;;;;;;1.12;57.01;100400.17;1752529;81;20979;-78
2022/01/22 10:17:52;;;;;;;12.65;8.88;;;;;;;1.20;56.91;100398.23;1752500;80;21911;-84
2022/01/22 10:20:28;;;;;;;11.70;7.15;;;;;;;1.25;57.04;100388.66;1752323;80;21023;-81
2022/01/22 10:22:59;;;;;;;10.95;7.60;;;;;;;1.31;56.96;100397.55;1752710;82;21343;-80
2022/01/22 10:25:48;;;;;;;9.98;7.10;;;;;;;1.38;56.79;100402.08;1716345;82;20856;-79
2022/01/22 10:28:20;;;;;;;10.48;7.28;;;;;;;1.42;56.81;100395.53;1716076;83;20895;-79
2022/01/22 10:30:45;;;;;;;11.15;7.42;;;;;;;1.50;56.64;100393.19;1715793;82;21149;-82
2022/01/22 10:36:19;;;;;;;7.25;6.10;;;;;;;1.60;56.88;100394.20;1716819;83;20888;-88
2022/01/22 10:39:12;;;;;;;10.50;6.95;;;;;;;1.72;56.38;100395.59;1716810;83;20904;-82
2022/01/22 10:41:42;;;;;;;12.23;7.58;;;;;;;1.69;55.82;100393.52;1714940;83;20931;-79
2022/01/22 10:44:15;;;;;;;10.13;7.45;;;;;;;1.55;55.95;100397.33;1717171;83;21552;-80
2022/01/22 10:47:02;;;;;;;11.43;7.37;;;;;;;1.37;56.26;100388.32;1718293;83;20979;-82
2022/01/22 10:49:25;;;;;;;11.80;7.67;;;;;;;1.18;56.83;100396.16;1717552;82;20991;-80
2022/01/22 10:51:59;;;;;;;10.38;6.35;;;;;;;1.00;57.23;100401.30;1720161;83;20872;-81
2022/01/22 10:54:32;;;;;;;18.60;8.70;;;;;;;0.87;57.49;100397.31;1755246;82;20881;-81
2022/01/22 10:57:17;;;;;;;13.03;7.95;;;;;;;0.82;58.12;100408.62;1716997;83;21358;-82
2022/01/22 10:59:51;;;;;;;12.85;8.23;;;;;;;0.83;58.32;100405.59;1716626;83;20888;-82
2022/01/22 11:02:18;;;;;;;12.63;7.75;;;;;;;0.81;58.41;100408.65;1716371;83;20902;-81
2022/01/22 11:04:45;;;;;;;9.98;7.58;;;;;;;0.78;58.54;100408.28;1711915;82;20944;-83
2022/01/22 11:07:18;;;;;;;15.05;7.62;;;;;;;0.70;58.56;100407.60;1716482;82;20935;-81
2022/01/22 11:09:46;;;;;;;17.02;9.05;;;;;;;0.58;58.76;100410.02;1716573;83;21165;-82
2022/01/22 11:12:14;;;;;;;12.82;7.95;;;;;;;0.49;59.08;100414.52;1716275;82;20856;-83
2022/01/22 11:14:42;;;;;;;11.75;7.47;;;;;;;0.43;59.42;100414.23;1716430;83;21441;-84
2022/01/22 11:17:10;;;;;;;17.73;9.15;;;;;;;0.32;59.52;100418.32;1717153;82;20900;-83
2022/01/22 11:19:39;;;;;;;18.45;9.18;;;;;;;0.22;59.85;100415.52;1716741;83;20852;-82
2022/01/22 11:22:11;;;;;;;13.50;9.00;;;;;;;0.16;60.18;100418.24;1716723;83;21134;-82
2022/01/22 11:24:41;;;;;;;11.70;7.87;;;;;;;0.12;60.40;100418.73;1716007;83;20883;-83
2022/01/22 11:27:13;;;;;;;19.62;9.65;;;;;;;0.11;60.45;100422.63;1716541;83;20924;-80
2022/01/22 11:29:51;;;;;;;20.08;9.40;;;;;;;0.07;60.75;100419.69;1752378;81;20987;-79
2022/01/22 11:32:23;;;;;;;17.90;9.55;;;;;;;0.05;60.94;100423.61;1752783;80;20928;-76
2022/01/22 11:34:52;;;;;;;17.20;9.23;;;;;;;0.02;61.04;100422.36;1752768;80;21151;-77
2022/01/22 11:37:43;;;;;;;19.95;9.58;;;;;;;0.01;61.23;100430.15;1716708;82;21452;-78
2022/01/22 11:40:23;;;;;;;16.77;9.65;;;;;;;0.00;61.41;100425.44;1716249;83;20970;-77
2022/01/22 11:43:20;;;;;;;17.85;10.38;;;;;;;-0.05;61.41;100430.66;1716331;82;21524;-77
2022/01/22 11:45:46;;;;;;;19.27;10.63;;;;;;;-0.09;61.62;100433.32;1751541;81;21560;-79
2022/01/22 11:48:20;;;;;;;15.53;9.70;;;;;;;-0.06;61.81;100428.13;1752039;81;21296;-78
2022/01/22 11:50:53;;;;;;;17.98;10.38;;;;;;;-0.02;61.98;100437.51;1752105;82;20884;-78
2022/01/22 11:53:37;;;;;;;15.83;10.88;;;;;;;0.04;61.92;100433.50;1752761;82;21475;-78
2022/01/22 11:56:21;;;;;;;21.48;12.23;;;;;;;0.07;61.88;100437.32;1752951;80;20893;-78
2022/01/22 11:59:06;;;;;;;22.37;10.98;;;;;;;0.10;61.81;100438.54;1752402;81;20968;-79
2022/01/22 12:01:53;;;;;;;18.85;11.20;;;;;;;0.10;61.86;100437.70;1752339;80;22022;-79
2022/01/22 12:04:42;;;;;;;20.77;13.88;;;;;;;0.11;61.87;100440.67;1747066;81;20980;-80
2022/01/22 12:07:13;;;;;;;14.45;10.05;;;;;;;0.08;62.04;100429.98;1752857;82;21437;-80
2022/01/22 12:15:33;;;;;;;16.40;9.18;;;;;;;0.05;62.26;100442.10;1746147;81;21134;-80
2022/01/22 12:18:12;;;;;;;18.45;10.00;;;;;;;0.05;62.13;100443.39;1744583;81;21046;-80
2022/01/22 12:23:35;;;;;;;15.30;10.35;;;;;;;0.00;62.38;100452.50;1744756;82;21422;-82
2022/01/22 12:26:03;;;;;;;16.10;9.83;;;;;;;-0.01;62.53;100449.05;1745513;80;20953;-83
2022/01/22 12:28:39;;;;;;;19.07;11.50;;;;;;;-0.02;62.61;100452.52;1746194;81;21761;-80
2022/01/22 12:31:16;;;;;;;20.37;11.45;;;;;;;-0.03;62.68;100452.09;1746606;82;20932;-81
2022/01/22 12:33:52;;;;;;;19.10;10.58;;;;;;;-0.02;62.80;100457.68;1745687;81;20889;-79
2022/01/22 12:36:40;;;;;;;18.87;10.72;;;;;;;-0.03;62.92;100453.39;1745581;82;21020;-78
2022/01/22 12:39:11;;;;;;;23.60;14.10;;;;;;;-0.05;62.94;100445.28;1745449;81;20904;-80
2022/01/22 12:46:52;;;;;;;17.67;11.50;;;;;;;-0.13;63.09;100458.77;1745243;80;20937;-80
2022/01/22 12:49:20;;;;;;;25.05;14.45;;;;;;;-0.14;63.31;100453.19;1743823;80;20996;-78
2022/01/22 12:52:00;;;;;;;22.93;12.53;;;;;;;-0.12;63.27;100460.45;1744567;82;20901;-79
2022/01/22 12:54:37;;;;;;;21.27;11.60;;;;;;;-0.08;63.16;100453.92;1744506;81;21153;-78
2022/01/22 12:57:10;;;;;;;18.95;13.45;;;;;;;-0.04;63.16;100454.73;1744751;82;20920;-80
2022/01/22 12:59:57;;;;;;;;;;;;;;;-0.03;63.25;100455.13;1747251;81;20921;-77
2022/01/22 13:02:38;;;;;;;18.90;12.07;;;;;;;-0.01;63.16;100454.66;1744544;82;20101;-78
2022/01/22 13:05:06;;;;;;;23.05;11.57;;;;;;;0.01;63.17;100459.80;1735365;82;21413;-78
2022/01/22 13:07:56;;;;;;;22.37;12.05;;;;;;;0.02;63.23;100459.74;1743394;81;22189;-78
2022/01/22 13:10:44;;;;;;;23.38;13.38;;;;;;;0.06;63.23;100460.09;1743626;82;21478;-76
2022/01/22 13:13:14;;;;;;;26.87;13.30;;;;;;;0.05;63.28;100451.13;1745170;82;21394;-78
2022/01/22 13:15:41;;;;;;;31.50;15.65;;;;;;;0.07;63.21;100460.94;1758428;81;20980;-77